Latest Weather Observations for Campania

IDT60801

Issued at 6:02 pm EST Monday 25 September 2017 (issued every 30 minutes, with the page automatically refreshed every 10 minutes)

About weather observations | Map of weather stations | Latest weather observations for TAS | Other Formats
Station Details ID: 094212 Name: CAMPANIA (KINCORA) Lat: -42.69 Lon: 147.43 Height: 45.0 m
Data from the previous 72 hours. | See also: Recent months at Campania
Date/Time
EST
Temp
°C
App
Temp
°C
Dew
Point
°C
Rel
Hum
%
Delta-T
°C
Wind Press
QNH
hPa
Press
MSL
hPa
Rain since
9am
mm
Dir  Spd
km/h
Gust
km/h
Spd
kts
Gust
kts
25/06:00pm 9.3 6.0 2.4 62 2.9 SSW 9 17 5 9 - - 0.6
25/05:30pm 9.6 6.0 2.9 63 2.9 SSE 11 20 6 11 - - 0.6
25/05:00pm 9.1 5.3 3.7 69 2.3 SSW 13 24 7 13 - - 0.6
25/04:42pm 8.3 3.2 4.3 76 1.8 SSW 20 39 11 21 - - 0.6
25/04:30pm 9.9 1.4 3.4 64 2.8 W 37 50 20 27 - - 0.0
25/04:29pm 10.4 1.9 3.0 60 3.2 W 37 50 20 27 - - 0.0
25/04:00pm 11.1 5.5 3.6 60 3.3 WNW 22 33 12 18 - - 0.0
25/03:30pm 11.3 5.3 3.1 57 3.6 W 24 33 13 18 - - 0.0
25/03:00pm 12.0 4.7 2.7 53 4.1 W 30 50 16 27 - - 0.0
25/02:30pm 13.1 5.5 3.7 53 4.2 W 33 54 18 29 - - 0.0
25/02:17pm 12.8 6.1 3.5 53 4.2 W 28 48 15 26 - - 0.0
25/02:00pm 11.3 4.6 3.8 60 3.3 W 28 39 15 21 - - 0.0
25/01:30pm 13.3 6.5 3.1 50 4.5 WNW 28 46 15 25 - - 0.0
25/01:18pm 13.3 6.6 3.4 51 4.4 W 28 46 15 25 - - 0.0
25/01:00pm 13.1 7.9 3.5 52 4.3 W 20 37 11 20 - - 0.0
25/12:30pm 12.7 6.7 3.1 52 4.3 WNW 24 44 13 24 - - 0.0
25/12:00pm 14.0 6.6 4.0 51 4.6 W 32 43 17 23 - - 0.0
25/11:30am 12.9 6.5 3.0 51 4.4 WNW 26 39 14 21 - - 0.0
25/11:00am 13.3 7.0 3.7 52 4.3 WNW 26 35 14 19 - - 0.0
25/10:30am 11.4 5.6 2.4 54 3.9 WNW 22 32 12 17 - - 0.0
25/10:00am 10.9 4.0 2.7 57 3.5 WNW 28 41 15 22 - - 0.0
25/09:30am 10.1 4.7 1.5 55 3.6 WNW 19 32 10 17 - - 0.0
25/09:16am 9.8 2.7 1.2 55 3.6 WNW 28 46 15 25 - - 0.0
25/09:00am 10.1 2.3 1.5 55 3.6 WNW 32 48 17 26 - - 0.0
25/08:37am 10.3 2.4 1.2 53 3.8 W 32 50 17 27 - - 0.0
25/08:30am 10.1 1.6 1.0 53 3.8 WNW 35 50 19 27 - - 0.0
25/08:00am 10.1 4.4 0.7 52 3.8 NW 20 32 11 17 - - 0.0
25/07:30am 9.5 4.0 0.4 53 3.7 N 19 39 10 21 - - 0.0
25/07:01am 8.5 0.3 0.2 56 3.3 NW 33 52 18 28 - - 0.0
25/07:00am 8.5 -0.1 0.0 55 3.4 NW 35 52 19 28 - - 0.0
25/06:30am 8.0 2.3 0.3 58 3.1 WNW 20 35 11 19 - - 0.0
25/06:00am 7.9 2.4 0.4 59 3.0 WNW 19 30 10 16 - - 0.0
25/05:30am 8.3 2.8 0.3 57 3.2 WNW 19 28 10 15 - - 0.0
25/05:00am 7.8 1.4 0.8 61 2.8 W 24 39 13 21 - - 0.0
25/04:35am 8.3 1.0 0.3 57 3.2 W 28 46 15 25 - - 0.0
25/04:30am 8.0 1.9 0.3 58 3.1 WNW 22 41 12 22 - - 0.0
25/04:00am 8.6 1.4 0.8 58 3.2 WNW 28 46 15 25 - - 0.0
25/03:59am 8.4 1.2 0.9 59 3.0 WNW 28 46 15 25 - - 0.0
25/03:30am 8.8 2.0 0.8 57 3.2 WNW 26 41 14 22 - - 0.0
25/03:00am 8.6 3.1 1.7 62 2.9 WNW 20 35 11 19 - - 0.0
25/02:30am 9.1 5.8 2.4 63 2.8 NW 9 24 5 13 - - 0.0
25/02:00am 9.5 4.2 2.1 60 3.1 WNW 19 28 10 15 - - 0.0
25/01:30am 9.7 2.9 3.0 63 2.9 W 28 41 15 22 - - 0.0
25/01:00am 10.3 5.5 4.5 67 2.6 W 19 35 10 19 - - 0.0
25/12:30am 11.1 6.3 4.6 64 2.9 WNW 19 28 10 15 - - 0.0
25/12:00am 11.2 7.0 5.7 69 2.6 WNW 17 28 9 15 - - 0.0
 
Date/Time
EST
Temp
°C
App
Temp
°C
Dew
Point
°C
Rel
Hum
%
Delta-T
°C
Wind Press
QNH
hPa
Press
MSL
hPa
Rain since
9am
mm
Dir  Spd
km/h
Gust
km/h
Spd
kts
Gust
kts
24/11:30pm 11.4 7.2 5.5 67 2.7 WNW 17 24 9 13 - - 0.0
24/11:00pm 11.7 7.4 5.1 64 3.0 WNW 17 22 9 12 - - 0.0
24/10:30pm 12.3 7.9 4.5 59 3.6 WNW 17 22 9 12 - - 0.0
24/10:00pm 12.4 7.9 4.4 58 3.6 NW 17 24 9 13 - - 0.0
24/09:30pm 12.8 7.7 4.3 56 3.9 NW 20 30 11 16 - - 0.0
24/09:00pm 12.9 7.5 4.6 57 3.8 NNW 22 32 12 17 - - 0.0
24/08:30pm 12.8 8.4 5.0 59 3.6 N 17 24 9 13 - - 0.0
24/08:00pm 13.0 10.2 5.2 59 3.6 N 9 15 5 8 - - 0.0
24/07:30pm 13.1 10.3 5.3 59 3.6 NNW 9 17 5 9 - - 0.0
24/07:00pm 13.0 9.8 5.2 59 3.6 NNW 11 20 6 11 - - 0.0
24/06:30pm 13.1 10.4 5.8 61 3.4 NNW 9 15 5 8 - - 0.0
24/06:00pm 13.8 9.9 5.4 57 4.0 NW 15 22 8 12 - - 0.0
24/05:30pm 14.8 11.0 5.6 54 4.4 NNW 15 24 8 13 - - 0.0
24/05:00pm 14.8 9.9 5.3 53 4.5 NW 20 37 11 20 - - 0.0
24/04:30pm 15.5 10.7 4.8 49 5.0 NW 19 28 10 15 - - 0.0
24/04:00pm 16.4 10.0 5.1 47 5.4 NNW 28 41 15 22 - - 0.0
24/03:30pm 16.9 10.6 5.5 47 5.5 NW 28 43 15 23 - - 0.0
24/03:01pm 16.6 9.8 4.9 46 5.6 NW 30 50 16 27 - - 0.0
24/03:00pm 16.6 10.1 4.6 45 5.7 NW 28 41 15 22 - - 0.0
24/02:33pm 15.9 9.4 4.6 47 5.3 WNW 28 46 15 25 - - 0.0
24/02:30pm 15.9 9.9 5.2 49 5.1 WNW 26 44 14 24 - - 0.0
24/02:04pm 14.9 8.6 5.7 54 4.4 WNW 28 50 15 27 - - 0.0
24/02:00pm 16.4 11.2 5.4 48 5.3 WNW 22 37 12 20 - - 0.0
24/01:32pm 16.6 9.4 4.9 46 5.6 WNW 32 50 17 27 - - 0.0
24/01:30pm 16.5 9.0 4.5 45 5.7 WNW 33 50 18 27 - - 0.0
24/01:00pm 16.3 7.8 5.0 47 5.4 NW 39 57 21 31 - - 0.0
24/12:30pm 16.8 8.5 6.0 49 5.3 WNW 39 59 21 32 - - 0.0
24/12:20pm 16.4 9.0 4.8 46 5.5 NW 33 54 18 29 - - 0.0
24/12:00pm 16.6 10.2 7.0 53 4.8 NW 30 46 16 25 - - 0.0
24/11:30am 16.1 9.2 6.3 52 4.8 NW 32 50 17 27 - - 0.0
24/11:17am 16.0 9.8 6.2 52 4.8 NW 28 46 15 25 - - 0.0
24/11:00am 15.8 10.3 6.0 52 4.7 NW 24 39 13 21 - - 0.0
24/10:30am 14.9 10.3 5.7 54 4.4 NW 19 32 10 17 - - 0.0
24/10:00am 14.0 7.2 4.9 54 4.2 NW 30 46 16 25 - - 0.0
24/09:42am 14.1 7.8 5.5 56 4.1 NW 28 48 15 26 - - 0.0
24/09:30am 14.2 7.8 5.0 54 4.3 NW 28 39 15 21 - - 0.0
24/09:00am 14.4 7.6 5.2 54 4.3 NNW 30 46 16 25 - - 11.8
24/08:55am 14.3 7.8 4.9 53 4.4 NNW 28 46 15 25 - - 11.8
24/08:30am 13.4 7.4 5.1 57 3.9 NNW 26 39 14 21 - - 11.8
24/08:00am 12.7 7.6 5.8 63 3.2 N 22 35 12 19 - - 11.8
24/07:30am 12.8 7.6 5.5 61 3.4 N 22 37 12 20 - - 11.8
24/07:00am 12.4 6.8 5.6 63 3.2 N 24 35 13 19 - - 11.8
24/06:30am 12.2 6.6 5.4 63 3.2 NNW 24 37 13 20 - - 11.8
24/06:00am 12.1 6.8 5.0 62 3.3 N 22 35 12 19 - - 11.8
24/05:30am 11.7 9.4 4.9 63 3.1 NNW 6 15 3 8 - - 11.8
24/05:00am 11.8 7.1 5.0 63 3.1 NNW 19 33 10 18 - - 11.8
24/04:30am 12.1 6.4 4.8 61 3.3 NW 24 41 13 22 - - 11.8
24/04:05am 12.1 4.9 5.0 62 3.3 NNW 32 50 17 27 - - 11.8
24/04:00am 12.2 4.4 5.1 62 3.3 NNW 35 50 19 27 - - 11.8
24/03:40am 12.4 4.6 5.1 61 3.4 NNW 35 54 19 29 - - 11.8
24/03:30am 12.5 5.1 5.2 61 3.4 NNW 33 48 18 26 - - 11.8
24/03:10am 12.4 5.1 5.3 62 3.3 NNW 33 52 18 28 - - 11.8
24/03:00am 12.5 4.4 5.4 62 3.3 NNW 37 50 20 27 - - 11.8
24/02:32am 13.0 5.4 5.7 61 3.4 NW 35 54 19 29 - - 11.8
24/02:30am 12.9 5.3 5.6 61 3.4 NW 35 50 19 27 - - 11.8
24/02:12am 12.8 6.5 5.7 62 3.3 NNW 28 48 15 26 - - 11.8
24/02:00am 12.6 7.5 5.8 63 3.2 N 22 35 12 19 - - 11.8
24/01:30am 12.3 7.1 5.7 64 3.1 N 22 32 12 17 - - 11.8
24/01:00am 12.2 7.4 5.6 64 3.1 N 20 35 11 19 - - 11.8
24/12:30am 11.9 9.0 6.4 69 2.6 N 11 20 6 11 - - 11.8
24/12:00am 11.9 7.9 6.8 71 2.4 N 17 26 9 14 - - 11.8
 
Date/Time
EST
Temp
°C
App
Temp
°C
Dew
Point
°C
Rel
Hum
%
Delta-T
°C
Wind Press
QNH
hPa
Press
MSL
hPa
Rain since
9am
mm
Dir  Spd
km/h
Gust
km/h
Spd
kts
Gust
kts
23/11:30pm 11.7 7.7 6.8 72 2.3 NNE 17 22 9 12 - - 11.8
23/11:00pm 12.6 10.6 7.1 69 2.7 N 7 11 4 6 - - 11.8
23/10:30pm 12.5 9.8 7.2 70 2.6 NNW 11 13 6 7 - - 11.8
23/10:00pm 13.0 10.4 9.3 78 1.9 NW 13 20 7 11 - - 11.8
23/09:30pm 13.1 10.6 9.7 80 1.7 N 13 17 7 9 - - 11.8
23/09:00pm 13.1 11.5 10.3 83 1.5 N 9 11 5 6 - - 11.6
23/08:30pm 14.4 9.8 9.8 74 2.4 WNW 24 37 13 20 - - 11.6
23/08:00pm 13.6 11.7 11.8 89 1.0 NW 13 39 7 21 - - 11.4
23/07:48pm 14.1 9.4 12.0 87 1.1 W 28 52 15 28 - - 3.6
23/07:30pm 14.3 14.7 11.1 81 1.7 CALM 0 7 0 4 - - 2.8
23/07:00pm 14.8 13.5 11.2 79 1.9 NNE 9 13 5 7 - - 2.8
23/06:30pm 14.7 13.4 11.3 80 1.8 NNW 9 15 5 8 - - 2.8
23/06:00pm 15.3 13.5 10.9 75 2.3 NNW 11 15 6 8 - - 2.8
23/05:30pm 15.6 13.9 11.2 75 2.4 N 11 15 6 8 - - 2.8
23/05:00pm 16.7 13.5 11.4 71 2.9 N 19 24 10 13 - - 2.8
23/04:30pm 16.8 14.1 11.7 72 2.8 N 17 24 9 13 - - 2.8
23/04:00pm 16.9 15.0 11.8 72 2.8 N 13 20 7 11 - - 2.8
23/03:30pm 16.9 16.0 11.4 70 3.0 NNE 7 9 4 5 - - 2.8
23/03:00pm 16.0 14.6 12.2 78 2.1 NNE 11 15 6 8 - - 2.8
23/02:30pm 16.2 14.0 12.0 76 2.3 N 15 22 8 12 - - 2.8
23/02:00pm 17.4 14.7 11.7 69 3.1 N 17 28 9 15 - - 2.8
23/01:30pm 14.7 12.5 12.0 84 1.5 N 15 19 8 10 - - 2.8
23/01:00pm 13.9 11.1 11.4 85 1.3 N 17 26 9 14 - - 2.8
23/12:30pm 13.7 9.9 11.0 84 1.4 N 22 28 12 15 - - 2.4
23/12:00pm 14.1 10.6 10.1 77 2.1 N 19 26 10 14 - - 2.0
23/11:30am 14.2 9.1 10.6 79 1.9 N 28 39 15 21 - - 2.0
23/11:00am 13.4 8.6 10.2 81 1.7 N 26 35 14 19 - - 2.0
23/10:30am 13.9 10.3 10.5 80 1.8 N 20 32 11 17 - - 1.8
23/10:00am 13.3 7.8 10.5 83 1.5 N 30 43 16 23 - - 1.4
23/09:30am 13.5 10.6 10.9 84 1.4 N 17 24 9 13 - - 0.6
23/09:00am 12.5 10.8 10.0 85 1.3 NNE 9 13 5 7 - - 3.4
23/08:30am 11.6 10.4 9.5 87 1.1 N 6 9 3 5 - - 3.0
23/08:00am 11.9 10.4 9.3 84 1.3 N 7 17 4 9 - - 2.0
23/07:30am 11.3 9.5 8.0 80 1.6 N 7 15 4 8 - - 1.8
23/07:00am 11.1 7.1 8.3 83 1.4 N 19 26 10 14 - - 1.4
23/06:30am 10.8 7.3 7.3 79 1.7 NW 15 24 8 13 - - 1.0
23/06:00am 8.6 6.8 5.2 79 1.5 NNW 4 9 2 5 - - 0.6
23/05:30am 8.4 6.2 5.3 81 1.4 NNE 6 9 3 5 - - 0.6
23/05:00am 9.4 7.2 5.2 75 1.9 NE 6 9 3 5 - - 0.6
23/04:30am 10.0 5.5 6.0 76 1.8 NNE 19 26 10 14 - - 0.6
23/04:00am 10.3 5.7 6.5 77 1.8 NNE 20 24 11 13 - - 0.6
23/03:30am 10.9 8.5 7.2 78 1.8 NNW 9 19 5 10 - - 0.6
23/03:00am 11.1 7.8 8.1 82 1.5 NE 15 24 8 13 - - 0.6
23/02:30am 10.8 9.0 7.9 82 1.4 NE 7 17 4 9 - - 0.6
23/02:00am 11.3 8.4 8.3 82 1.5 NNW 13 20 7 11 - - 0.4
23/01:30am 12.2 8.1 8.5 78 1.8 N 20 24 11 13 - - 0.4
23/01:00am 12.7 8.2 8.6 76 2.0 NNW 22 37 12 20 - - 0.4
23/12:39am 11.9 6.3 8.6 80 1.6 N 28 43 15 23 - - 0.4
23/12:30am 12.3 12.0 8.6 78 1.8 CALM 0 17 0 9 - - 0.4
23/12:00am 12.6 8.7 8.7 77 2.0 N 19 30 10 16 - - 0.4
 
Date/Time
EST
Temp
°C
App
Temp
°C
Dew
Point
°C
Rel
Hum
%
Delta-T
°C
Wind Press
QNH
hPa
Press
MSL
hPa
Rain since
9am
mm
Dir  Spd
km/h
Gust
km/h
Spd
kts
Gust
kts
22/11:30pm 11.6 9.6 8.6 82 1.5 N 9 30 5 16 - - 0.0
22/11:00pm 12.5 8.3 8.2 75 2.1 N 20 26 11 14 - - 0.0
22/10:30pm 13.4 8.7 7.6 68 2.9 N 22 30 12 16 - - 0.0
22/10:00pm 13.8 9.3 6.9 63 3.4 N 20 28 11 15 - - 0.0
22/09:30pm 13.1 10.3 6.9 66 3.0 WNW 11 19 6 10 - - 0.0
22/09:00pm 13.8 10.2 6.9 63 3.4 N 15 30 8 16 - - 0.0
22/08:30pm 13.9 11.9 7.2 64 3.3 S 7 11 4 6 - - 0.0
22/08:00pm 14.4 11.0 7.5 63 3.4 N 15 24 8 13 - - 0.0
22/07:30pm 14.0 11.3 7.5 65 3.2 N 11 15 6 8 - - 0.0
22/07:00pm 13.8 11.4 6.9 63 3.4 NE 9 13 5 7 - - 0.0
22/06:30pm 14.2 10.6 6.8 61 3.6 NNE 15 22 8 12 - - 0.0

Other Formats:

Comma delimited format used in spreadsheet applications
http://www.bom.gov.au/fwo/IDT60801/IDT60801.95972.axf

JavaScript Object Notation format (JSON) in row-major order
http://www.bom.gov.au/fwo/IDT60801/IDT60801.95972.json